Time;durP1;ratioP1;P1;durP2;ratioP2;P2;SDS_P1;SDS_P2;PMS_P1;PMS_P2;Temp;Humidity;BMP_temperature;BMP_pressure;BME280_temperature;BME280_humidity;BME280_pressure;Samples;Min_cycle;Max_cycle;Signal;HPM_P1;HPM_P2
2023/03/09 00:01:27;;;;;;;24.33;14.88;;;2.30;99.90;;;;;;5033613;28;20644;-56
2023/03/09 00:04:14;;;;;;;24.50;14.45;;;2.30;99.90;;;;;;5019555;28;20409;-56
2023/03/09 00:07:00;;;;;;;22.85;14.07;;;2.20;99.90;;;;;;5032767;28;20037;-51
2023/03/09 00:09:47;;;;;;;26.90;16.92;;;2.20;99.90;;;;;;5034025;28;20025;-55
2023/03/09 00:12:33;;;;;;;25.08;15.07;;;2.20;99.90;;;;;;5017559;28;20026;-51
2023/03/09 00:15:19;;;;;;;25.88;15.60;;;2.20;99.90;;;;;;5033764;28;20108;-56
2023/03/09 00:18:05;;;;;;;25.80;16.35;;;2.20;99.90;;;;;;5032755;28;20038;-52
2023/03/09 00:20:51;;;;;;;25.77;15.63;;;2.20;99.90;;;;;;5019389;28;20026;-57
2023/03/09 00:23:37;;;;;;;22.63;13.65;;;2.20;99.90;;;;;;5016991;28;20026;-57
2023/03/09 00:26:23;;;;;;;25.83;14.88;;;2.30;99.90;;;;;;5033263;28;20056;-59
2023/03/09 00:29:12;;;;;;;26.23;14.93;;;2.20;99.90;;;;;;5033149;28;20461;-55
2023/03/09 00:31:58;;;;;;;27.05;16.73;;;2.20;99.90;;;;;;5033184;28;20025;-54
2023/03/09 00:34:44;;;;;;;26.50;15.45;;;2.20;99.90;;;;;;5030370;28;20022;-62
2023/03/09 00:37:31;;;;;;;27.48;15.77;;;2.10;99.90;;;;;;5032239;28;20661;-54
2023/03/09 00:40:19;;;;;;;28.27;15.65;;;2.20;99.90;;;;;;5011718;28;20046;-58
2023/03/09 00:43:04;;;;;;;25.23;14.85;;;2.20;99.90;;;;;;5016747;28;20069;-60
2023/03/09 00:45:50;;;;;;;29.02;16.00;;;2.20;99.90;;;;;;5031593;28;20729;-58
2023/03/09 00:48:36;;;;;;;27.80;15.93;;;2.20;99.90;;;;;;5032578;28;20032;-56
2023/03/09 00:51:23;;;;;;;26.10;15.65;;;2.10;99.90;;;;;;5032664;28;20021;-57
2023/03/09 00:54:12;;;;;;;27.00;14.63;;;2.10;99.90;;;;;;5033231;28;20034;-60
2023/03/09 00:57:01;;;;;;;26.73;16.00;;;2.10;99.90;;;;;;5031866;28;20103;-57
2023/03/09 00:59:47;;;;;;;26.35;15.10;;;2.00;99.90;;;;;;5032471;28;20038;-59
2023/03/09 01:02:33;;;;;;;28.15;15.35;;;2.00;99.90;;;;;;5031864;28;20040;-58
2023/03/09 01:05:20;;;;;;;28.63;15.68;;;1.90;99.90;;;;;;5012445;28;20033;-58
2023/03/09 01:08:06;;;;;;;28.63;16.27;;;1.90;99.90;;;;;;5010942;28;20510;-59
2023/03/09 01:10:51;;;;;;;25.23;14.63;;;1.90;99.90;;;;;;4997288;28;20175;-59
2023/03/09 01:13:38;;;;;;;26.85;15.57;;;1.90;99.90;;;;;;5011323;28;20037;-59
2023/03/09 01:16:24;;;;;;;27.17;15.82;;;1.90;99.90;;;;;;5010543;28;20026;-57
2023/03/09 01:19:09;;;;;;;24.88;14.25;;;1.80;99.90;;;;;;5027223;28;20030;-57
2023/03/09 01:21:55;;;;;;;29.52;16.80;;;1.80;99.90;;;;;;5032172;28;20026;-58
2023/03/09 01:24:41;;;;;;;26.42;15.82;;;1.90;99.90;;;;;;5030313;28;20409;-55
2023/03/09 01:27:27;;;;;;;26.48;15.70;;;1.80;99.90;;;;;;5031266;28;20025;-59
2023/03/09 01:30:14;;;;;;;26.20;14.60;;;1.80;99.90;;;;;;5031874;28;20026;-59
2023/03/09 01:33:00;;;;;;;27.13;15.52;;;1.70;99.90;;;;;;5031975;28;20029;-58
2023/03/09 01:35:46;;;;;;;25.00;14.85;;;1.80;99.90;;;;;;5032769;28;20033;-58
2023/03/09 01:38:32;;;;;;;25.35;14.05;;;1.80;99.90;;;;;;5031417;28;20394;-56
2023/03/09 01:41:20;;;;;;;26.35;15.10;;;1.80;99.90;;;;;;5019471;28;20034;-59
2023/03/09 01:44:10;;;;;;;25.05;14.75;;;1.80;99.90;;;;;;5051609;28;20048;-55
2023/03/09 01:46:57;;;;;;;23.92;13.82;;;1.80;99.90;;;;;;5054226;28;20060;-54
2023/03/09 01:49:47;;;;;;;20.52;12.85;;;1.70;99.90;;;;;;5052882;28;20024;-58
2023/03/09 01:52:34;;;;;;;21.80;13.18;;;1.70;99.90;;;;;;5037381;28;20068;-56
2023/03/09 01:55:30;;;;;;;20.75;12.40;;;1.70;99.90;;;;;;5016298;28;20029;-57
2023/03/09 01:58:21;;;;;;;21.58;13.02;;;1.70;99.90;;;;;;5022532;28;20033;-54
2023/03/09 02:01:09;;;;;;;21.60;11.85;;;1.70;99.90;;;;;;5030963;28;20086;-55
2023/03/09 02:04:02;;;;;;;20.02;11.63;;;1.70;99.90;;;;;;5029003;28;20529;-57
2023/03/09 02:06:49;;;;;;;18.90;11.20;;;1.70;99.90;;;;;;5002489;28;20432;-56
2023/03/09 02:09:41;;;;;;;18.83;10.50;;;1.70;99.90;;;;;;5030653;28;20029;-54
2023/03/09 02:12:28;;;;;;;18.20;11.13;;;1.70;99.90;;;;;;5031369;28;20060;-57
2023/03/09 02:15:14;;;;;;;17.90;11.43;;;1.70;99.90;;;;;;5030876;28;20036;-55
2023/03/09 02:18:00;;;;;;;19.48;11.82;;;1.60;99.90;;;;;;5030422;28;20037;-57
2023/03/09 02:21:05;;;;;;;18.90;10.90;;;1.70;99.90;;;;;;5031290;28;20029;-54
2023/03/09 02:24:12;;;;;;;17.17;11.63;;;1.70;99.90;;;;;;5011852;28;20392;-56
2023/03/09 02:27:07;;;;;;;17.92;11.20;;;1.70;99.90;;;;;;5017442;28;20049;-57
2023/03/09 02:29:55;;;;;;;19.15;12.27;;;1.70;99.90;;;;;;5030748;28;20026;-55
2023/03/09 02:32:41;;;;;;;19.48;11.32;;;1.70;99.90;;;;;;5029098;28;20037;-55
2023/03/09 02:35:27;;;;;;;17.30;11.70;;;1.70;99.90;;;;;;5030664;28;20510;-52
2023/03/09 02:38:13;;;;;;;22.60;11.48;;;1.80;99.90;;;;;;5029978;28;20038;-55
2023/03/09 02:41:02;;;;;;;19.08;11.35;;;1.80;99.90;;;;;;5031222;28;20040;-58
2023/03/09 02:43:54;;;;;;;18.60;11.60;;;1.80;99.90;;;;;;5028405;28;20033;-57
2023/03/09 02:46:40;;;;;;;18.50;11.18;;;1.80;99.90;;;;;;5029711;28;20517;-57
2023/03/09 02:49:27;;;;;;;15.68;10.43;;;1.70;99.90;;;;;;5029205;28;20028;-58
2023/03/09 02:52:13;;;;;;;16.27;11.43;;;1.70;99.90;;;;;;5030487;28;20034;-53
2023/03/09 02:54:59;;;;;;;15.60;10.45;;;1.70;99.90;;;;;;5030015;28;20095;-59
2023/03/09 02:57:45;;;;;;;15.25;10.40;;;1.70;99.90;;;;;;5028650;28;20037;-58
2023/03/09 03:00:31;;;;;;;18.48;11.98;;;1.70;99.90;;;;;;5030140;28;20037;-56
2023/03/09 03:03:20;;;;;;;16.90;11.45;;;1.70;99.90;;;;;;5013343;28;20041;-56
2023/03/09 03:06:06;;;;;;;18.77;11.95;;;1.70;99.90;;;;;;5029936;28;20022;-58
2023/03/09 03:08:52;;;;;;;16.40;10.57;;;1.70;99.90;;;;;;5030234;28;20405;-58
2023/03/09 03:11:38;;;;;;;17.90;11.32;;;1.70;99.90;;;;;;5017129;28;20036;-57
2023/03/09 03:14:24;;;;;;;16.92;11.43;;;1.70;99.90;;;;;;5030688;28;20037;-56
2023/03/09 03:17:10;;;;;;;16.08;10.95;;;1.70;99.90;;;;;;5016337;28;20171;-55
2023/03/09 03:19:56;;;;;;;16.52;11.18;;;1.70;99.90;;;;;;5031980;28;20025;-53
2023/03/09 03:22:42;;;;;;;18.15;10.98;;;1.70;99.90;;;;;;5016023;28;20103;-55
2023/03/09 03:25:28;;;;;;;16.83;11.57;;;1.70;99.90;;;;;;5029820;28;20048;-57
2023/03/09 03:28:14;;;;;;;16.98;11.55;;;1.70;99.90;;;;;;5030362;28;20089;-54
2023/03/09 03:31:00;;;;;;;17.20;10.75;;;1.70;99.90;;;;;;5030209;28;20069;-57
2023/03/09 03:33:46;;;;;;;17.85;12.15;;;1.70;99.90;;;;;;5030139;28;20489;-56
2023/03/09 03:36:32;;;;;;;15.60;10.40;;;1.70;99.90;;;;;;5016645;28;20113;-56
2023/03/09 03:39:18;;;;;;;16.25;10.68;;;1.80;99.90;;;;;;5029487;28;20438;-60
2023/03/09 03:42:04;;;;;;;17.80;10.93;;;1.70;99.90;;;;;;5029458;28;20520;-58
2023/03/09 03:44:50;;;;;;;16.08;10.48;;;1.70;99.90;;;;;;5029203;28;20041;-57
2023/03/09 03:47:36;;;;;;;16.00;10.98;;;1.70;99.90;;;;;;5029279;28;20029;-59
2023/03/09 03:50:22;;;;;;;17.05;11.65;;;1.70;99.90;;;;;;5030194;28;20022;-56
2023/03/09 03:53:08;;;;;;;17.05;11.50;;;1.70;99.90;;;;;;5030300;28;20074;-60
2023/03/09 03:55:54;;;;;;;14.68;10.30;;;1.80;99.90;;;;;;5029695;28;20448;-59
2023/03/09 03:58:40;;;;;;;14.38;10.40;;;1.70;99.90;;;;;;5026016;28;20044;-60
2023/03/09 04:01:26;;;;;;;16.63;11.60;;;1.70;99.90;;;;;;5029536;28;20440;-61
2023/03/09 04:04:12;;;;;;;16.70;12.18;;;1.70;99.90;;;;;;5029035;28;20060;-61
2023/03/09 04:06:58;;;;;;;15.73;11.45;;;1.70;99.90;;;;;;5015650;28;20029;-61
2023/03/09 04:09:44;;;;;;;16.65;11.15;;;1.70;99.90;;;;;;5017469;28;20029;-61
2023/03/09 04:12:30;;;;;;;17.73;11.75;;;1.70;99.90;;;;;;5033391;28;20056;-59
2023/03/09 04:15:16;;;;;;;17.67;11.48;;;1.80;99.90;;;;;;5033128;28;20106;-61
2023/03/09 04:18:03;;;;;;;16.75;11.10;;;1.90;99.90;;;;;;5031760;28;20057;-60
2023/03/09 04:20:52;;;;;;;15.23;10.50;;;1.80;99.90;;;;;;5033481;28;20084;-62
2023/03/09 04:23:38;;;;;;;16.15;10.60;;;1.80;99.90;;;;;;5034098;28;20049;-62
2023/03/09 04:26:24;;;;;;;16.55;11.20;;;1.80;99.90;;;;;;5005812;28;20048;-60
2023/03/09 04:29:10;;;;;;;17.30;11.82;;;1.80;99.90;;;;;;5031809;28;20088;-59
2023/03/09 04:31:56;;;;;;;18.33;12.35;;;1.80;99.90;;;;;;5031854;28;20108;-60
2023/03/09 04:34:42;;;;;;;16.17;11.15;;;1.80;99.90;;;;;;5032953;28;20087;-60
2023/03/09 04:37:28;;;;;;;16.25;11.02;;;1.70;99.90;;;;;;5016831;28;20033;-59
2023/03/09 04:40:14;;;;;;;17.10;11.10;;;1.70;99.90;;;;;;5032236;28;20112;-59
2023/03/09 04:43:00;;;;;;;16.08;11.13;;;1.80;99.90;;;;;;5031560;28;20064;-59
2023/03/09 04:45:46;;;;;;;18.55;11.13;;;1.80;99.90;;;;;;5032693;28;20033;-57
2023/03/09 04:48:32;;;;;;;14.80;11.00;;;1.90;99.90;;;;;;5017157;28;20037;-54
2023/03/09 04:51:18;;;;;;;15.60;10.27;;;1.90;99.90;;;;;;5017958;28;20478;-55
2023/03/09 04:54:04;;;;;;;17.60;10.75;;;1.90;99.90;;;;;;5032363;28;20088;-54
2023/03/09 04:56:50;;;;;;;15.93;10.68;;;2.00;99.90;;;;;;5030843;28;20443;-58
2023/03/09 04:59:36;;;;;;;16.02;10.40;;;2.00;99.90;;;;;;5020408;28;20034;-58
2023/03/09 05:02:22;;;;;;;17.75;10.48;;;2.00;99.90;;;;;;5017788;28;20033;-56
2023/03/09 05:05:09;;;;;;;17.23;11.13;;;2.00;99.90;;;;;;5031844;28;20037;-56
2023/03/09 05:07:55;;;;;;;13.93;9.77;;;2.00;99.90;;;;;;5030828;28;20462;-57
2023/03/09 05:10:41;;;;;;;14.93;10.55;;;2.00;99.90;;;;;;5016779;28;20065;-58
2023/03/09 05:13:27;;;;;;;15.02;9.73;;;2.10;99.90;;;;;;5030712;28;20033;-55
2023/03/09 05:16:13;;;;;;;16.15;10.85;;;2.00;99.90;;;;;;5031429;28;20029;-59
2023/03/09 05:18:59;;;;;;;16.88;11.18;;;1.90;99.90;;;;;;5031632;28;20030;-59
2023/03/09 05:21:45;;;;;;;16.27;9.93;;;1.80;99.90;;;;;;5011683;28;20080;-58
2023/03/09 05:24:31;;;;;;;15.65;10.40;;;1.90;99.90;;;;;;5016393;28;20033;-56
2023/03/09 05:27:17;;;;;;;16.45;11.57;;;1.90;99.90;;;;;;5016323;28;20026;-57
2023/03/09 05:30:03;;;;;;;17.40;11.18;;;1.90;99.90;;;;;;5030983;28;20025;-54
2023/03/09 05:32:49;;;;;;;17.33;10.82;;;1.90;99.90;;;;;;5016197;28;20033;-55
2023/03/09 05:35:35;;;;;;;16.80;11.40;;;1.90;99.90;;;;;;5031341;28;20025;-54
2023/03/09 05:38:21;;;;;;;16.25;11.18;;;1.90;99.90;;;;;;5031331;28;20131;-59
2023/03/09 05:41:07;;;;;;;16.83;11.30;;;1.90;99.90;;;;;;5032007;28;20072;-53
2023/03/09 05:43:53;;;;;;;17.48;11.20;;;1.90;99.90;;;;;;5031584;28;20645;-58
2023/03/09 05:46:39;;;;;;;15.65;10.20;;;1.90;99.90;;;;;;5030970;28;20410;-56
2023/03/09 05:49:27;;;;;;;14.15;9.90;;;1.80;99.90;;;;;;5029729;28;20084;-56
2023/03/09 05:52:13;;;;;;;15.23;10.10;;;1.90;99.90;;;;;;5018602;28;20552;-59
2023/03/09 05:54:59;;;;;;;13.48;9.02;;;1.90;99.90;;;;;;5031002;28;20587;-57
2023/03/09 05:57:45;;;;;;;15.07;10.05;;;1.80;99.90;;;;;;5030647;28;20025;-58
2023/03/09 06:00:31;;;;;;;12.07;8.60;;;1.80;99.90;;;;;;5031858;28;20033;-57
2023/03/09 06:03:17;;;;;;;13.43;8.90;;;1.80;99.90;;;;;;5030803;28;20034;-57
2023/03/09 06:06:04;;;;;;;11.55;7.78;;;1.90;99.90;;;;;;5029969;28;20033;-59
2023/03/09 06:08:50;;;;;;;10.82;7.30;;;1.90;99.90;;;;;;5028114;28;20039;-60
2023/03/09 06:11:36;;;;;;;11.65;7.60;;;1.90;99.90;;;;;;5016350;28;20048;-58
2023/03/09 06:14:22;;;;;;;12.18;7.90;;;1.90;99.90;;;;;;5016501;28;20059;-58
2023/03/09 06:17:08;;;;;;;12.13;7.82;;;1.90;99.90;;;;;;5030707;28;20030;-59
2023/03/09 06:19:54;;;;;;;14.88;8.15;;;1.80;99.90;;;;;;5011124;28;20045;-54
2023/03/09 06:22:40;;;;;;;15.05;10.15;;;1.70;99.90;;;;;;5009912;28;20038;-57
2023/03/09 06:25:26;;;;;;;11.52;7.55;;;1.80;99.90;;;;;;5024400;28;20033;-58
2023/03/09 06:28:12;;;;;;;12.30;8.20;;;1.90;99.90;;;;;;5029195;28;20536;-55
2023/03/09 06:30:58;;;;;;;14.63;8.40;;;1.90;99.90;;;;;;5014630;28;20056;-58
2023/03/09 06:33:46;;;;;;;14.20;9.35;;;1.90;99.90;;;;;;5030315;28;20470;-58
2023/03/09 06:36:34;;;;;;;15.23;8.48;;;1.90;99.90;;;;;;5028897;28;20076;-58
2023/03/09 06:39:19;;;;;;;14.45;9.18;;;1.90;99.90;;;;;;5029555;28;20060;-57
2023/03/09 06:42:06;;;;;;;13.93;8.98;;;1.90;99.90;;;;;;5030625;28;20040;-59
2023/03/09 06:44:51;;;;;;;16.20;9.23;;;1.80;99.90;;;;;;5029466;28;20033;-58
2023/03/09 06:47:37;;;;;;;16.35;9.63;;;2.00;99.90;;;;;;5028946;28;20017;-59
2023/03/09 06:50:25;;;;;;;14.32;9.90;;;2.00;99.90;;;;;;5029879;28;20034;-61
2023/03/09 06:53:11;;;;;;;15.18;9.20;;;2.10;99.90;;;;;;5030187;28;20033;-56
2023/03/09 06:56:01;;;;;;;13.57;9.15;;;2.00;99.90;;;;;;5029526;28;20033;-60
2023/03/09 06:58:46;;;;;;;15.05;9.85;;;2.00;99.90;;;;;;5029911;28;20025;-60
2023/03/09 07:01:36;;;;;;;15.50;9.35;;;2.00;99.90;;;;;;5019029;28;20029;-61
2023/03/09 07:04:22;;;;;;;14.20;9.60;;;2.00;99.90;;;;;;5015730;28;20514;-62
2023/03/09 07:07:08;;;;;;;16.77;10.48;;;2.10;99.90;;;;;;5014821;28;20401;-60
2023/03/09 07:09:54;;;;;;;16.75;10.50;;;2.10;99.90;;;;;;5030291;28;20473;-61
2023/03/09 07:12:40;;;;;;;15.40;10.32;;;2.30;99.90;;;;;;5015593;28;20505;-59
2023/03/09 07:15:26;;;;;;;15.30;10.55;;;2.30;99.90;;;;;;5029319;28;20033;-61
2023/03/09 07:18:12;;;;;;;16.75;9.77;;;2.20;99.90;;;;;;5015301;28;20059;-61
2023/03/09 07:21:02;;;;;;;13.68;9.80;;;2.30;99.90;;;;;;5029308;28;20026;-61
2023/03/09 07:23:48;;;;;;;14.27;9.63;;;2.30;99.90;;;;;;5029662;28;20048;-59
2023/03/09 07:26:34;;;;;;;15.57;10.60;;;2.20;99.90;;;;;;5028607;28;20026;-60
2023/03/09 07:29:20;;;;;;;13.82;9.70;;;2.30;99.90;;;;;;5014362;28;20021;-62
2023/03/09 07:32:07;;;;;;;19.10;10.98;;;2.30;99.90;;;;;;5029428;28;20079;-62
2023/03/09 07:34:53;;;;;;;16.05;10.35;;;2.30;99.90;;;;;;5030278;28;20328;-63
2023/03/09 07:37:40;;;;;;;14.95;10.35;;;2.30;99.90;;;;;;5014480;28;20132;-63
2023/03/09 07:40:26;;;;;;;15.25;10.80;;;2.30;99.90;;;;;;5010743;28;20038;-61
2023/03/09 07:43:12;;;;;;;23.98;10.98;;;2.30;99.90;;;;;;5014001;28;20022;-63
2023/03/09 07:45:58;;;;;;;14.43;10.02;;;2.20;99.90;;;;;;5023599;28;20103;-61
2023/03/09 07:48:45;;;;;;;15.35;10.07;;;2.20;99.90;;;;;;5031621;28;20036;-63
2023/03/09 07:51:31;;;;;;;15.20;10.30;;;2.30;99.90;;;;;;5013595;28;20025;-62
2023/03/09 07:54:17;;;;;;;15.52;10.80;;;2.40;99.90;;;;;;5008689;28;20046;-63
2023/03/09 07:57:04;;;;;;;15.80;10.38;;;2.40;99.90;;;;;;5032932;28;20038;-63
2023/03/09 07:59:54;;;;;;;14.35;10.32;;;2.50;99.90;;;;;;5034038;28;20034;-62
2023/03/09 08:02:40;;;;;;;14.65;10.00;;;2.50;99.90;;;;;;5032773;28;20033;-64
2023/03/09 08:05:26;;;;;;;15.48;10.35;;;2.40;99.90;;;;;;5032878;28;20426;-62
2023/03/09 08:08:12;;;;;;;17.17;10.90;;;2.50;99.90;;;;;;5005406;28;20108;-63
2023/03/09 08:10:59;;;;;;;30.92;20.15;;;2.60;99.90;;;;;;4985029;28;20034;-64
2023/03/09 08:13:45;;;;;;;14.73;10.57;;;2.70;99.90;;;;;;5014367;28;20030;-61
2023/03/09 08:16:31;;;;;;;14.70;10.25;;;2.80;99.90;;;;;;5013854;28;20576;-63
2023/03/09 08:19:20;;;;;;;15.25;10.55;;;2.80;99.90;;;;;;5015897;28;20037;-64
2023/03/09 08:22:06;;;;;;;21.73;10.68;;;2.80;99.90;;;;;;5031198;28;20079;-63
2023/03/09 08:24:52;;;;;;;16.73;10.52;;;2.80;99.90;;;;;;5033222;28;20117;-63
2023/03/09 08:27:43;;;;;;;15.85;10.45;;;2.80;99.90;;;;;;5017935;28;20396;-63
2023/03/09 08:30:30;;;;;;;15.57;10.93;;;2.80;99.90;;;;;;5029664;28;20112;-63
2023/03/09 08:33:16;;;;;;;14.95;10.65;;;2.80;99.90;;;;;;5022345;28;20034;-63
2023/03/09 08:36:13;;;;;;;14.00;10.60;;;2.80;99.90;;;;;;5017170;28;20036;-63
2023/03/09 08:38:59;;;;;;;15.63;11.23;;;2.80;99.90;;;;;;5004310;28;20084;-63
2023/03/09 08:41:45;;;;;;;15.05;11.40;;;2.80;99.90;;;;;;5031691;28;20551;-63
2023/03/09 08:44:31;;;;;;;15.25;10.52;;;2.90;99.90;;;;;;5032149;28;20128;-63
2023/03/09 08:47:17;;;;;;;13.15;9.93;;;3.00;99.90;;;;;;5016605;28;20496;-63
2023/03/09 08:50:03;;;;;;;18.08;11.57;;;3.00;99.90;;;;;;5030596;28;20021;-63
2023/03/09 08:52:49;;;;;;;15.27;11.20;;;3.20;99.90;;;;;;5016945;28;20053;-63
2023/03/09 08:55:35;;;;;;;14.10;10.73;;;3.20;99.90;;;;;;5016038;28;20117;-63
2023/03/09 08:58:21;;;;;;;15.98;10.88;;;3.20;99.90;;;;;;5030799;28;20026;-63
2023/03/09 09:01:09;;;;;;;15.50;11.82;;;3.20;99.90;;;;;;5018198;28;20119;-62
2023/03/09 09:03:55;;;;;;;15.07;10.65;;;3.10;99.90;;;;;;5031920;28;20445;-62
2023/03/09 09:06:41;;;;;;;15.95;10.80;;;3.20;99.90;;;;;;5031422;28;20498;-62
2023/03/09 09:09:27;;;;;;;15.00;10.68;;;3.40;99.90;;;;;;5031983;28;20076;-61
2023/03/09 09:12:13;;;;;;;14.88;11.30;;;3.50;99.90;;;;;;5023577;28;20033;-58
2023/03/09 09:14:59;;;;;;;14.88;10.48;;;3.60;99.90;;;;;;5030701;28;20386;-58
2023/03/09 09:17:45;;;;;;;16.98;11.35;;;3.60;99.90;;;;;;5013712;28;20060;-60
2023/03/09 09:20:31;;;;;;;15.30;11.35;;;3.60;99.90;;;;;;5001909;28;20033;-57
2023/03/09 09:23:17;;;;;;;16.13;10.98;;;3.60;99.90;;;;;;5030948;28;20049;-61
2023/03/09 09:26:05;;;;;;;14.23;10.43;;;3.70;99.90;;;;;;5009439;28;20072;-59
2023/03/09 09:28:52;;;;;;;15.07;11.55;;;3.80;99.90;;;;;;5029013;28;20759;-61
2023/03/09 09:31:38;;;;;;;18.08;12.60;;;3.90;99.90;;;;;;5030803;28;20029;-58
2023/03/09 09:34:24;;;;;;;16.67;12.48;;;4.00;99.90;;;;;;5031432;28;20033;-59
2023/03/09 09:37:11;;;;;;;18.88;12.23;;;4.10;99.90;;;;;;5030795;28;20038;-59
2023/03/09 09:39:58;;;;;;;15.27;11.18;;;4.20;99.90;;;;;;5029148;28;20029;-57
2023/03/09 09:42:44;;;;;;;15.73;11.80;;;4.30;99.90;;;;;;5016546;28;20453;-59
2023/03/09 09:45:35;;;;;;;15.85;11.70;;;4.30;99.90;;;;;;5032020;28;20449;-58
2023/03/09 09:48:22;;;;;;;14.90;11.38;;;4.40;99.90;;;;;;5030547;28;20013;-58
2023/03/09 09:51:23;;;;;;;15.38;11.73;;;4.30;99.90;;;;;;5031091;28;20805;-59
2023/03/09 09:54:34;;;;;;;17.75;12.38;;;4.20;99.90;;;;;;5030703;28;20540;-58
2023/03/09 09:57:53;;;;;;;17.90;12.38;;;4.10;99.90;;;;;;5029474;28;20109;-57
2023/03/09 10:00:50;;;;;;;23.17;13.00;;;4.10;99.90;;;;;;4998112;28;20026;-53
2023/03/09 10:03:41;;;;;;;19.15;14.00;;;4.10;99.90;;;;;;5030797;28;20542;-55
2023/03/09 10:06:28;;;;;;;23.13;14.30;;;4.10;99.90;;;;;;5029659;28;20029;-54
2023/03/09 10:09:23;;;;;;;23.75;14.77;;;4.00;99.90;;;;;;5029964;28;20439;-56
2023/03/09 10:12:14;;;;;;;25.08;14.52;;;4.00;99.90;;;;;;5030118;28;20041;-56
2023/03/09 10:15:13;;;;;;;28.75;17.98;;;4.10;99.90;;;;;;5030567;28;20075;-52
2023/03/09 10:18:25;;;;;;;39.72;24.08;;;4.00;99.90;;;;;;5030412;28;20216;-56
2023/03/09 10:21:46;;;;;;;20.27;14.23;;;4.10;99.90;;;;;;5039021;28;20401;-57
2023/03/09 10:24:38;;;;;;;18.27;13.05;;;4.10;99.90;;;;;;5039322;28;20026;-57
2023/03/09 10:27:34;;;;;;;18.13;13.45;;;4.10;99.90;;;;;;5037079;28;20020;-57
2023/03/09 10:30:40;;;;;;;20.50;13.73;;;4.10;99.90;;;;;;5030618;28;20045;-59
2023/03/09 10:33:44;;;;;;;15.77;12.20;;;4.10;99.90;;;;;;5020703;28;20316;-60
2023/03/09 10:36:32;;;;;;;15.38;11.93;;;4.20;99.90;;;;;;5025679;28;20038;-58
2023/03/09 10:39:18;;;;;;;16.80;12.25;;;4.20;99.90;;;;;;5030751;28;20075;-55
2023/03/09 10:42:15;;;;;;;17.17;11.88;;;3.80;99.90;;;;;;5029378;28;20414;-57
2023/03/09 10:45:13;;;;;;;16.85;12.00;;;3.80;99.90;;;;;;5020256;28;20633;-58
2023/03/09 10:48:02;;;;;;;15.45;12.20;;;3.80;99.90;;;;;;4994852;28;20030;-56
2023/03/09 10:51:03;;;;;;;17.52;12.88;;;3.80;99.90;;;;;;5010264;28;20022;-58
2023/03/09 10:53:48;;;;;;;18.50;13.25;;;3.80;99.90;;;;;;5009461;28;20034;-58
2023/03/09 10:56:42;;;;;;;17.95;13.07;;;3.90;99.90;;;;;;5008653;28;20571;-56
2023/03/09 10:59:30;;;;;;;18.65;11.75;;;3.90;99.90;;;;;;5009613;28;20117;-59
2023/03/09 11:02:35;;;;;;;18.83;13.70;;;3.90;99.90;;;;;;5005980;28;20033;-58
2023/03/09 11:05:23;;;;;;;17.30;13.33;;;3.70;99.90;;;;;;5028658;28;20033;-58
2023/03/09 11:08:26;;;;;;;18.67;13.35;;;3.50;99.90;;;;;;5027638;28;20268;-57
2023/03/09 11:11:25;;;;;;;20.45;13.88;;;3.50;99.90;;;;;;5028043;28;20425;-60
2023/03/09 11:14:22;;;;;;;19.10;13.48;;;3.70;99.90;;;;;;5015328;28;20021;-59
2023/03/09 11:17:28;;;;;;;20.20;13.52;;;3.80;99.90;;;;;;5015218;28;20118;-59
2023/03/09 11:20:18;;;;;;;;;;;3.80;99.90;;;;;;5034152;28;20033;-57
2023/03/09 11:23:30;;;;;;;18.73;13.77;;;3.60;99.90;;;;;;5015306;28;19909;-56
2023/03/09 11:26:23;;;;;;;18.55;12.27;;;3.80;99.90;;;;;;5019939;28;20101;-61
2023/03/09 11:29:24;;;;;;;18.92;12.70;;;4.10;99.90;;;;;;5022542;28;20049;-61
2023/03/09 11:32:11;;;;;;;18.83;11.95;;;4.10;99.90;;;;;;5014851;28;20022;-59
2023/03/09 11:34:59;;;;;;;18.75;12.73;;;4.40;99.90;;;;;;5032151;28;20549;-60
2023/03/09 11:37:58;;;;;;;18.20;13.05;;;4.40;99.90;;;;;;5024913;28;20083;-59
2023/03/09 11:40:45;;;;;;;18.27;13.05;;;4.40;99.90;;;;;;5018458;28;20057;-58
2023/03/09 11:43:34;;;;;;;21.80;13.27;;;4.20;99.90;;;;;;5023149;28;20034;-58
2023/03/09 11:46:21;;;;;;;16.48;11.98;;;4.00;99.90;;;;;;5012091;28;20684;-60
2023/03/09 11:49:14;;;;;;;19.83;14.45;;;4.20;99.90;;;;;;5017707;28;20026;-59
2023/03/09 11:52:06;;;;;;;19.27;12.88;;;4.30;99.90;;;;;;5030397;28;20116;-61
2023/03/09 11:54:55;;;;;;;19.75;12.77;;;4.40;99.90;;;;;;5017426;28;20465;-60
2023/03/09 11:57:46;;;;;;;18.48;12.05;;;4.60;99.90;;;;;;5019310;28;20033;-59
2023/03/09 12:00:34;;;;;;;14.98;11.02;;;4.70;99.90;;;;;;5026170;28;20026;-59
2023/03/09 12:03:21;;;;;;;17.02;11.43;;;4.80;99.90;;;;;;5029139;28;20506;-61
2023/03/09 12:06:25;;;;;;;15.07;10.80;;;4.90;99.90;;;;;;5033779;28;20034;-60
2023/03/09 12:09:37;;;;;;;22.88;16.13;;;5.20;99.90;;;;;;5018239;28;20029;-61
2023/03/09 12:12:38;;;;;;;15.90;11.45;;;5.30;99.90;;;;;;4985956;28;20109;-57
2023/03/09 12:15:51;;;;;;;13.98;9.57;;;5.30;99.90;;;;;;5017775;28;20499;-56
2023/03/09 12:18:53;;;;;;;11.38;8.30;;;5.30;99.90;;;;;;5024844;28;20118;-62
2023/03/09 12:21:42;;;;;;;11.95;9.75;;;5.20;99.90;;;;;;5032838;28;20030;-61
2023/03/09 12:24:34;;;;;;;12.00;9.00;;;5.20;99.90;;;;;;5002540;28;20410;-57
2023/03/09 12:27:25;;;;;;;15.38;10.43;;;5.20;99.90;;;;;;5012729;28;20383;-56
2023/03/09 12:30:33;;;;;;;14.63;10.50;;;4.90;99.90;;;;;;5023728;28;20026;-59
2023/03/09 12:33:41;;;;;;;14.43;10.10;;;5.10;99.90;;;;;;5032414;28;20060;-59
2023/03/09 12:36:30;;;;;;;15.90;11.68;;;5.00;99.90;;;;;;5032185;28;20199;-60
2023/03/09 12:39:33;;;;;;;15.00;10.63;;;5.00;99.90;;;;;;5014116;28;20036;-57
2023/03/09 12:42:19;;;;;;;13.85;10.15;;;4.90;99.90;;;;;;5026317;28;20565;-57
2023/03/09 12:45:14;;;;;;;14.20;9.85;;;4.90;99.90;;;;;;5031705;28;20053;-58
2023/03/09 12:48:11;;;;;;;13.18;9.25;;;4.90;99.90;;;;;;5032082;28;20021;-60
2023/03/09 12:51:29;;;;;;;14.40;9.98;;;4.80;99.90;;;;;;5033809;28;20505;-57
2023/03/09 12:54:23;;;;;;;14.82;10.30;;;4.90;99.90;;;;;;5016394;28;20154;-59
2023/03/09 12:57:16;;;;;;;13.65;10.63;;;4.90;99.90;;;;;;5022825;28;20037;-58
2023/03/09 13:00:30;;;;;;;12.77;9.43;;;5.00;99.90;;;;;;5029655;28;20037;-58
2023/03/09 13:03:31;;;;;;;12.98;9.60;;;5.10;99.90;;;;;;5011280;28;20029;-57
2023/03/09 13:06:20;;;;;;;15.13;11.27;;;5.10;99.90;;;;;;4998569;28;20379;-57
2023/03/09 13:09:13;;;;;;;16.17;11.77;;;4.90;99.90;;;;;;5015402;28;20021;-58
2023/03/09 13:12:14;;;;;;;15.77;11.50;;;4.90;99.90;;;;;;5032417;28;20068;-60
2023/03/09 13:15:25;;;;;;;17.65;12.48;;;4.90;99.90;;;;;;5011954;28;20053;-58
2023/03/09 13:18:22;;;;;;;19.75;12.27;;;4.60;99.90;;;;;;5024685;28;20032;-59
2023/03/09 13:21:37;;;;;;;17.33;12.57;;;4.40;99.90;;;;;;5032048;28;20060;-54
2023/03/09 13:24:35;;;;;;;17.10;13.70;;;4.50;99.90;;;;;;5030770;28;20028;-55
2023/03/09 13:27:24;;;;;;;15.82;11.38;;;4.70;99.90;;;;;;5030550;28;20076;-56
2023/03/09 13:30:24;;;;;;;17.10;12.63;;;4.90;99.90;;;;;;5031024;28;20394;-57
2023/03/09 13:33:33;;;;;;;21.63;13.35;;;5.10;99.90;;;;;;5028088;28;20029;-54
2023/03/09 13:36:23;;;;;;;16.38;11.95;;;5.00;99.90;;;;;;5013931;28;20033;-58
2023/03/09 13:39:18;;;;;;;18.52;12.65;;;5.00;99.90;;;;;;5017608;28;20510;-59
2023/03/09 13:42:06;;;;;;;15.88;11.35;;;5.00;99.90;;;;;;5019001;28;20038;-56
2023/03/09 13:44:53;;;;;;;16.95;11.70;;;5.00;99.90;;;;;;4999257;28;20080;-58
2023/03/09 13:47:39;;;;;;;13.52;10.65;;;5.00;99.90;;;;;;5015085;28;20025;-56
2023/03/09 13:50:27;;;;;;;22.05;12.48;;;4.90;99.90;;;;;;5025788;28;20390;-59
2023/03/09 13:53:16;;;;;;;16.77;11.70;;;4.90;99.90;;;;;;5023486;28;20357;-55
2023/03/09 13:56:05;;;;;;;14.90;10.68;;;5.00;99.90;;;;;;5019395;28;20671;-59
2023/03/09 13:58:51;;;;;;;16.40;11.57;;;4.90;99.90;;;;;;5029909;28;20025;-58
2023/03/09 14:01:37;;;;;;;16.77;11.75;;;4.90;99.90;;;;;;5020287;28;20018;-60
2023/03/09 14:04:24;;;;;;;15.65;11.45;;;4.90;99.90;;;;;;5023146;28;20032;-57
2023/03/09 14:07:17;;;;;;;16.63;11.40;;;4.80;99.90;;;;;;5029881;28;20095;-61
2023/03/09 14:10:14;;;;;;;15.88;11.90;;;4.70;99.90;;;;;;5029417;28;20029;-55
2023/03/09 14:13:10;;;;;;;17.27;11.85;;;4.60;99.90;;;;;;5010315;28;20109;-56
2023/03/09 14:16:06;;;;;;;18.33;12.30;;;4.60;99.90;;;;;;5024351;28;20741;-59
2023/03/09 14:18:54;;;;;;;20.38;13.45;;;4.60;99.90;;;;;;5029882;28;20146;-55
2023/03/09 14:21:40;;;;;;;19.70;13.13;;;4.70;99.90;;;;;;5030708;28;20038;-54
2023/03/09 14:24:32;;;;;;;17.23;11.95;;;4.70;99.90;;;;;;5015689;28;20486;-57
2023/03/09 14:27:23;;;;;;;18.90;12.55;;;4.60;99.90;;;;;;5030691;28;20029;-59
2023/03/09 14:30:30;;;;;;;20.80;12.88;;;4.60;99.90;;;;;;5023695;28;20037;-55
2023/03/09 14:33:31;;;;;;;19.13;12.60;;;4.50;99.90;;;;;;5029014;28;20022;-57